Time;durP1;ratioP1;P1;durP2;ratioP2;P2;SDS_P1;SDS_P2;PMS_P1;PMS_P2;Temp;Humidity;BMP_temperature;BMP_pressure;BME280_temperature;BME280_humidity;BME280_pressure;Samples;Min_cycle;Max_cycle;Signal;HPM_P1;HPM_P2
2021/12/11 00:00:57;;;;;;;17.33;14.23;;;-2.40;99.90;;;;;;5013279;28;20195;-64
2021/12/11 00:03:25;;;;;;;15.47;13.00;;;-2.50;99.90;;;;;;5013180;28;20233;-63
2021/12/11 00:05:57;;;;;;;20.00;13.13;;;-2.50;99.90;;;;;;5013164;28;20224;-63
2021/12/11 00:08:26;;;;;;;20.83;13.97;;;-2.50;99.90;;;;;;5014847;28;20590;-63
2021/12/11 00:10:58;;;;;;;16.30;12.93;;;-2.50;99.90;;;;;;5017221;28;20175;-63
2021/12/11 00:13:28;;;;;;;16.97;13.53;;;-2.50;99.90;;;;;;5016965;28;20326;-63
2021/12/11 00:15:55;;;;;;;19.13;13.43;;;-2.50;99.90;;;;;;5017598;28;20533;-63
2021/12/11 00:18:24;;;;;;;22.40;14.20;;;-2.60;99.90;;;;;;5016479;28;20258;-63
2021/12/11 00:21:08;;;;;;;19.40;14.57;;;-2.60;99.90;;;;;;4998664;28;20643;-63
2021/12/11 00:23:49;;;;;;;16.70;14.47;;;-2.60;99.90;;;;;;5016234;28;20708;-63
2021/12/11 00:26:25;;;;;;;16.27;14.00;;;-2.60;99.90;;;;;;4998562;28;20176;-63
2021/12/11 00:28:51;;;;;;;20.60;14.53;;;-2.60;99.90;;;;;;4998623;28;20171;-63
2021/12/11 00:31:17;;;;;;;18.97;13.97;;;-2.60;99.90;;;;;;5016461;28;20176;-63
2021/12/11 00:33:45;;;;;;;19.13;13.70;;;-2.50;99.90;;;;;;5015936;28;20192;-63
2021/12/11 00:36:16;;;;;;;20.20;13.60;;;-2.50;99.90;;;;;;4998589;28;20188;-63
2021/12/11 00:38:42;;;;;;;17.97;13.90;;;-2.40;99.90;;;;;;5016536;28;20250;-63
2021/12/11 00:41:11;;;;;;;15.43;12.67;;;-2.50;99.90;;;;;;5015954;28;20551;-63
2021/12/11 00:43:40;;;;;;;22.70;14.77;;;-2.50;99.90;;;;;;4998089;28;20243;-63
2021/12/11 00:46:10;;;;;;;14.47;13.07;;;-2.60;99.90;;;;;;5015716;28;20246;-63
2021/12/11 00:48:37;;;;;;;17.77;14.20;;;-2.70;99.90;;;;;;5015711;28;20176;-63
2021/12/11 00:51:11;;;;;;;16.37;12.77;;;-2.70;99.90;;;;;;4998064;28;20233;-63
2021/12/11 00:53:48;;;;;;;15.33;13.73;;;-2.70;99.90;;;;;;5016038;28;20199;-63
2021/12/11 00:56:33;;;;;;;20.97;13.30;;;-2.80;99.90;;;;;;5015924;28;20688;-63
2021/12/11 00:59:03;;;;;;;17.10;13.37;;;-2.80;99.90;;;;;;4997848;28;20175;-63
2021/12/11 01:01:34;;;;;;;14.07;12.67;;;-2.80;99.90;;;;;;5015441;28;20172;-64
2021/12/11 01:04:06;;;;;;;16.77;14.33;;;-2.70;99.90;;;;;;5015371;28;20222;-63
2021/12/11 01:06:47;;;;;;;17.27;14.63;;;-2.80;99.90;;;;;;5015936;28;20299;-63
2021/12/11 01:09:18;;;;;;;15.17;13.57;;;-2.80;99.90;;;;;;5015717;28;20642;-64
2021/12/11 01:11:47;;;;;;;18.17;13.03;;;-2.80;99.90;;;;;;5016351;28;20504;-64
2021/12/11 01:14:31;;;;;;;17.60;12.33;;;-2.80;99.90;;;;;;5015228;28;20192;-63
2021/12/11 01:17:03;;;;;;;17.37;14.20;;;-2.80;99.90;;;;;;5015192;28;20210;-63
2021/12/11 01:19:36;;;;;;;18.60;14.23;;;-2.80;99.90;;;;;;5014361;28;20624;-63
2021/12/11 01:22:11;;;;;;;16.43;14.00;;;-2.90;99.90;;;;;;5015510;28;20281;-63
2021/12/11 01:24:45;;;;;;;19.20;14.90;;;-2.80;99.90;;;;;;5015359;28;20242;-63
2021/12/11 01:27:15;;;;;;;15.67;13.67;;;-2.80;99.90;;;;;;5015064;28;20523;-63
2021/12/11 01:29:42;;;;;;;24.37;14.37;;;-2.90;99.90;;;;;;5015171;28;20172;-63
2021/12/11 01:32:09;;;;;;;20.03;15.20;;;-2.90;99.90;;;;;;5015050;28;20233;-63
2021/12/11 01:34:36;;;;;;;17.77;13.63;;;-2.90;99.90;;;;;;4997300;28;20668;-63
2021/12/11 01:37:03;;;;;;;16.20;14.50;;;-2.90;99.90;;;;;;5015035;28;20188;-63
2021/12/11 01:39:32;;;;;;;15.20;13.67;;;-2.90;99.90;;;;;;5015192;28;20180;-63
2021/12/11 01:41:59;;;;;;;17.67;14.67;;;-2.90;99.90;;;;;;5014885;28;20203;-64
2021/12/11 01:44:31;;;;;;;20.03;14.47;;;-3.00;99.90;;;;;;5015174;28;20356;-64
2021/12/11 01:47:04;;;;;;;17.70;15.03;;;-3.00;99.90;;;;;;5015088;28;20164;-64
2021/12/11 01:49:30;;;;;;;18.60;14.73;;;-2.90;99.90;;;;;;5014866;28;20168;-63
2021/12/11 01:52:06;;;;;;;18.77;15.27;;;-2.90;99.90;;;;;;5014667;28;20263;-64
2021/12/11 01:54:37;;;;;;;16.73;14.97;;;-2.90;99.90;;;;;;5014628;28;20577;-64
2021/12/11 01:57:10;;;;;;;18.23;14.43;;;-2.90;99.90;;;;;;5015144;28;20168;-63
2021/12/11 01:59:40;;;;;;;15.47;13.97;;;-2.90;99.90;;;;;;5014852;28;20168;-63
2021/12/11 02:02:31;;;;;;;16.23;14.23;;;-3.00;99.90;;;;;;5014640;28;20204;-64
2021/12/11 02:04:57;;;;;;;17.83;14.50;;;-3.00;99.90;;;;;;5014379;28;20231;-65
2021/12/11 02:07:31;;;;;;;20.30;14.73;;;-3.00;99.90;;;;;;5014270;28;20172;-63
2021/12/11 02:10:00;;;;;;;15.30;13.70;;;-3.10;99.90;;;;;;5014568;28;20171;-63
2021/12/11 02:12:36;;;;;;;16.10;14.30;;;-3.20;99.90;;;;;;5014381;28;20176;-64
2021/12/11 02:15:06;;;;;;;19.03;14.83;;;-3.20;99.90;;;;;;5014507;28;20187;-63
2021/12/11 02:17:52;;;;;;;15.53;14.00;;;-3.20;99.90;;;;;;5014121;28;20180;-64
2021/12/11 02:20:27;;;;;;;16.20;14.60;;;-3.20;99.90;;;;;;4996556;28;20179;-63
2021/12/11 02:22:53;;;;;;;20.87;13.97;;;-3.20;99.90;;;;;;5013995;28;20310;-63
2021/12/11 02:25:29;;;;;;;16.67;14.07;;;-3.20;99.90;;;;;;5014227;28;20207;-63
2021/12/11 02:28:05;;;;;;;17.03;13.33;;;-3.20;99.90;;;;;;5014222;28;20156;-63
2021/12/11 02:31:00;;;;;;;21.77;14.20;;;-3.20;99.90;;;;;;5013863;28;20574;-63
2021/12/11 02:33:32;;;;;;;16.33;13.73;;;-3.20;99.90;;;;;;5013977;28;20214;-63
2021/12/11 02:36:11;;;;;;;19.10;15.17;;;-3.30;99.90;;;;;;5014092;28;20174;-64
2021/12/11 02:38:45;;;;;;;18.67;14.87;;;-3.30;99.90;;;;;;4996497;28;20164;-63
2021/12/11 02:41:31;;;;;;;15.63;13.93;;;-3.30;99.90;;;;;;5014490;28;20257;-63
2021/12/11 02:44:03;;;;;;;16.73;14.00;;;-3.40;99.90;;;;;;5013655;28;20226;-63
2021/12/11 02:47:18;;;;;;;16.90;14.10;;;-3.30;99.90;;;;;;5014787;28;20180;-63
2021/12/11 02:50:00;;;;;;;18.27;15.10;;;-3.30;99.90;;;;;;5010190;28;20245;-63
2021/12/11 02:52:36;;;;;;;17.73;14.93;;;-3.40;99.90;;;;;;5013956;28;20172;-63
2021/12/11 02:55:22;;;;;;;17.23;13.90;;;-3.40;99.90;;;;;;5014287;28;20160;-64
2021/12/11 02:57:53;;;;;;;15.13;13.60;;;-3.40;99.90;;;;;;5013376;28;20266;-63
2021/12/11 03:00:30;;;;;;;15.70;14.10;;;-3.40;99.90;;;;;;4996356;28;20176;-63
2021/12/11 03:03:05;;;;;;;21.23;14.73;;;-3.40;99.90;;;;;;5013740;28;20628;-63
2021/12/11 03:05:44;;;;;;;15.60;13.87;;;-3.40;99.90;;;;;;4996308;28;20171;-63
2021/12/11 03:08:15;;;;;;;18.83;14.60;;;-3.40;99.90;;;;;;4996234;28;20172;-63
2021/12/11 03:10:44;;;;;;;16.97;14.13;;;-3.40;99.90;;;;;;5013962;28;20207;-64
2021/12/11 03:13:09;;;;;;;17.50;14.77;;;-3.40;99.90;;;;;;5013582;28;20196;-63
2021/12/11 03:15:35;;;;;;;19.30;14.13;;;-3.50;99.90;;;;;;5013718;28;20191;-63
2021/12/11 03:18:03;;;;;;;18.97;14.73;;;-3.50;99.90;;;;;;5013753;28;20590;-63
2021/12/11 03:20:29;;;;;;;16.77;13.93;;;-3.50;99.90;;;;;;5013890;28;20180;-63
2021/12/11 03:22:55;;;;;;;16.43;14.70;;;-3.50;99.90;;;;;;5013610;28;20199;-64
2021/12/11 03:25:26;;;;;;;17.27;14.40;;;-3.50;99.90;;;;;;5013650;28;20172;-63
2021/12/11 03:27:53;;;;;;;17.20;13.27;;;-3.50;99.90;;;;;;5013900;28;20160;-63
2021/12/11 03:30:29;;;;;;;19.40;13.73;;;-3.50;99.90;;;;;;5013478;28;20168;-63
2021/12/11 03:33:03;;;;;;;15.60;13.33;;;-3.60;99.90;;;;;;5013534;28;20282;-63
2021/12/11 03:35:28;;;;;;;21.40;13.90;;;-3.50;99.90;;;;;;4995909;28;20171;-64
2021/12/11 03:37:56;;;;;;;18.33;14.33;;;-3.50;99.90;;;;;;5013664;28;20195;-64
2021/12/11 03:40:22;;;;;;;17.20;14.13;;;-3.50;99.90;;;;;;5013357;28;20638;-63
2021/12/11 03:42:50;;;;;;;16.80;14.10;;;-3.60;99.90;;;;;;5013954;28;20217;-63
2021/12/11 03:45:23;;;;;;;15.33;13.73;;;-3.60;99.90;;;;;;4999921;28;20179;-63
2021/12/11 03:47:55;;;;;;;17.33;14.50;;;-3.60;99.90;;;;;;5017699;28;20634;-63
2021/12/11 03:50:22;;;;;;;21.13;13.67;;;-3.60;99.90;;;;;;5017573;28;20231;-63
2021/12/11 03:52:50;;;;;;;17.13;14.20;;;-3.60;99.90;;;;;;5017324;28;20204;-63
2021/12/11 03:55:26;;;;;;;20.40;14.60;;;-3.60;99.90;;;;;;5017437;28;20183;-63
2021/12/11 03:57:59;;;;;;;22.13;14.70;;;-3.50;99.90;;;;;;4999514;28;20167;-64
2021/12/11 04:00:35;;;;;;;16.10;13.83;;;-3.50;99.90;;;;;;5017395;28;20162;-63
2021/12/11 04:03:05;;;;;;;19.77;14.13;;;-3.50;99.90;;;;;;4999209;28;20219;-64
2021/12/11 04:05:36;;;;;;;15.57;14.07;;;-3.50;99.90;;;;;;5017058;28;20172;-63
2021/12/11 04:08:03;;;;;;;20.03;14.13;;;-3.50;99.90;;;;;;4999382;28;20226;-63
2021/12/11 04:10:29;;;;;;;15.67;13.97;;;-3.50;99.90;;;;;;5017281;28;20156;-63
2021/12/11 04:12:59;;;;;;;15.23;13.83;;;-3.60;99.90;;;;;;5016796;28;20215;-63
2021/12/11 04:15:24;;;;;;;16.90;14.57;;;-3.70;99.90;;;;;;5016833;28;20179;-63
2021/12/11 04:17:51;;;;;;;15.63;14.13;;;-3.70;99.90;;;;;;5017041;28;20246;-63
2021/12/11 04:20:22;;;;;;;17.37;14.67;;;-3.70;99.90;;;;;;5017361;28;20172;-63
2021/12/11 04:22:48;;;;;;;15.73;13.87;;;-3.80;99.90;;;;;;5016619;28;20287;-63
2021/12/11 04:25:16;;;;;;;13.63;12.37;;;-3.70;99.90;;;;;;5016899;28;20661;-63
2021/12/11 04:27:42;;;;;;;16.27;14.30;;;-3.70;99.90;;;;;;5016590;28;20234;-63
2021/12/11 04:30:11;;;;;;;14.40;13.00;;;-3.70;99.90;;;;;;5016552;28;20650;-64
2021/12/11 04:32:39;;;;;;;16.27;13.20;;;-3.70;99.90;;;;;;4998737;28;20318;-63
2021/12/11 04:35:07;;;;;;;15.97;13.90;;;-3.80;99.90;;;;;;5017085;28;20172;-63
2021/12/11 04:37:34;;;;;;;13.53;12.13;;;-3.70;99.90;;;;;;5016531;28;20180;-64
2021/12/11 04:40:12;;;;;;;15.47;13.90;;;-3.70;99.90;;;;;;5016921;28;20290;-63
2021/12/11 04:42:55;;;;;;;15.20;13.47;;;-3.60;99.90;;;;;;5016462;28;20269;-63
2021/12/11 04:45:33;;;;;;;22.00;14.30;;;-3.70;99.90;;;;;;5016612;28;20156;-63
2021/12/11 04:48:11;;;;;;;14.73;13.23;;;-3.70;99.90;;;;;;4998688;28;20590;-64
2021/12/11 04:50:50;;;;;;;20.40;14.93;;;-3.60;99.90;;;;;;5016165;28;20239;-63
2021/12/11 04:53:32;;;;;;;19.83;13.70;;;-3.50;99.90;;;;;;4998525;28;20216;-63
2021/12/11 04:59:25;;;;;;;18.67;14.60;;;-3.60;99.90;;;;;;5016385;28;20195;-63
2021/12/11 05:06:55;;;;;;;15.83;14.20;;;-3.60;99.90;;;;;;5016381;28;20211;-63
2021/12/11 05:14:50;;;;;;;18.27;14.77;;;-3.70;99.90;;;;;;5016069;28;20650;-63
2021/12/11 05:17:16;;;;;;;21.17;15.70;;;-3.70;99.90;;;;;;4997985;28;20184;-63
2021/12/11 05:19:43;;;;;;;22.60;14.97;;;-3.70;99.90;;;;;;5015509;28;20261;-63
2021/12/11 05:22:10;;;;;;;21.23;15.53;;;-3.80;99.90;;;;;;5015344;28;20199;-63
2021/12/11 05:24:39;;;;;;;20.63;15.27;;;-3.80;99.90;;;;;;5015749;28;20195;-63
2021/12/11 05:27:05;;;;;;;18.73;15.30;;;-3.90;99.90;;;;;;5015404;28;20712;-63
2021/12/11 05:29:32;;;;;;;17.77;15.60;;;-3.90;99.90;;;;;;5015333;28;20195;-63
2021/12/11 05:31:58;;;;;;;17.40;14.23;;;-3.90;99.90;;;;;;5015344;28;20195;-63
2021/12/11 05:34:24;;;;;;;19.33;14.90;;;-3.90;99.90;;;;;;5015192;28;20200;-63
2021/12/11 05:36:50;;;;;;;17.57;14.97;;;-3.90;99.90;;;;;;4997601;28;20184;-63
2021/12/11 05:39:18;;;;;;;26.93;15.33;;;-3.90;99.90;;;;;;5015464;28;20194;-63
2021/12/11 05:41:46;;;;;;;17.10;14.97;;;-3.90;99.90;;;;;;4997484;28;20279;-63
2021/12/11 05:44:14;;;;;;;21.17;15.03;;;-3.90;99.90;;;;;;5015005;28;20191;-63
2021/12/11 05:46:40;;;;;;;18.97;14.50;;;-3.90;99.90;;;;;;5015563;28;20327;-63
2021/12/11 05:49:07;;;;;;;22.80;14.50;;;-3.90;99.90;;;;;;5014955;28;20180;-63
2021/12/11 05:51:38;;;;;;;18.90;14.60;;;-3.90;99.90;;;;;;5014954;28;20523;-63
2021/12/11 05:54:08;;;;;;;20.67;14.80;;;-4.00;99.90;;;;;;4997896;28;20234;-63
2021/12/11 05:56:37;;;;;;;20.97;14.97;;;-4.00;99.90;;;;;;5015135;28;20195;-63
2021/12/11 05:59:05;;;;;;;21.83;14.47;;;-4.00;99.90;;;;;;5015048;28;20172;-63
2021/12/11 06:01:39;;;;;;;19.77;14.80;;;-4.00;99.90;;;;;;4997091;28;20184;-63
2021/12/11 06:04:08;;;;;;;19.03;15.53;;;-4.00;99.90;;;;;;4996931;28;20232;-63
2021/12/11 06:06:37;;;;;;;17.30;14.07;;;-4.00;99.90;;;;;;5014251;28;20599;-63
2021/12/11 06:09:05;;;;;;;18.60;15.20;;;-3.90;99.90;;;;;;5014639;28;20176;-63
2021/12/11 06:11:32;;;;;;;17.53;15.07;;;-3.90;99.90;;;;;;5014534;28;20183;-63
2021/12/11 06:13:58;;;;;;;18.57;16.23;;;-3.90;99.90;;;;;;5014438;28;20194;-63
2021/12/11 06:16:24;;;;;;;16.47;14.40;;;-3.80;99.90;;;;;;5014819;28;20198;-63
2021/12/11 06:18:50;;;;;;;21.93;15.93;;;-3.80;99.90;;;;;;4996892;28;20176;-63
2021/12/11 06:21:16;;;;;;;22.93;15.43;;;-3.70;99.90;;;;;;5014379;28;20521;-63
2021/12/11 06:23:42;;;;;;;21.57;15.77;;;-3.80;99.90;;;;;;5014380;28;20204;-63
2021/12/11 06:26:09;;;;;;;21.20;15.83;;;-3.80;99.90;;;;;;5014940;28;20198;-63
2021/12/11 06:28:35;;;;;;;24.33;15.67;;;-3.90;99.90;;;;;;5014312;28;20179;-63
2021/12/11 06:31:03;;;;;;;21.20;15.77;;;-3.90;99.90;;;;;;5014262;28;20168;-63
2021/12/11 06:33:30;;;;;;;19.40;16.13;;;-3.90;99.90;;;;;;5014109;28;20270;-63
2021/12/11 06:36:02;;;;;;;21.37;15.60;;;-4.00;99.90;;;;;;4996547;28;20195;-63
2021/12/11 06:38:31;;;;;;;23.47;16.27;;;-4.00;99.90;;;;;;5014369;28;20164;-63
2021/12/11 06:40:57;;;;;;;22.07;16.23;;;-4.10;99.90;;;;;;5014057;28;20646;-63
2021/12/11 06:43:23;;;;;;;18.57;14.80;;;-4.10;99.90;;;;;;5014183;28;20278;-63
2021/12/11 06:45:49;;;;;;;20.40;15.83;;;-4.10;99.90;;;;;;5013977;28;20175;-63
2021/12/11 06:48:16;;;;;;;18.13;15.60;;;-4.10;99.90;;;;;;5014479;28;20167;-63
2021/12/11 06:50:43;;;;;;;16.63;14.17;;;-4.10;99.90;;;;;;5013723;28;20255;-63
2021/12/11 06:53:17;;;;;;;24.77;16.80;;;-4.10;99.90;;;;;;5013695;28;20202;-62
2021/12/11 06:55:43;;;;;;;21.37;15.73;;;-4.00;99.90;;;;;;5013685;28;20164;-62
2021/12/11 06:58:08;;;;;;;23.10;16.20;;;-4.00;99.90;;;;;;5013930;28;20168;-62
2021/12/11 07:00:34;;;;;;;18.83;16.03;;;-4.00;99.90;;;;;;5013622;28;20175;-62
2021/12/11 07:03:00;;;;;;;23.77;16.87;;;-4.00;99.90;;;;;;5013507;28;20234;-62
2021/12/11 07:05:26;;;;;;;19.30;15.53;;;-4.00;99.90;;;;;;5013637;28;20191;-62
2021/12/11 07:07:52;;;;;;;21.27;16.87;;;-4.00;99.90;;;;;;5013756;28;20268;-62
2021/12/11 07:10:20;;;;;;;21.90;16.70;;;-4.00;99.90;;;;;;5013463;28;20179;-62
2021/12/11 07:12:48;;;;;;;24.50;17.10;;;-4.00;99.90;;;;;;5013632;28;20353;-62
2021/12/11 07:15:14;;;;;;;26.47;16.77;;;-4.00;99.90;;;;;;5013429;28;20175;-62
2021/12/11 07:17:40;;;;;;;22.80;16.73;;;-4.10;99.90;;;;;;5013384;28;20176;-62
2021/12/11 07:20:09;;;;;;;23.80;16.27;;;-4.10;99.90;;;;;;5013534;28;20180;-62
2021/12/11 07:22:39;;;;;;;22.93;17.20;;;-4.10;99.90;;;;;;5013216;28;20620;-63
2021/12/11 07:25:26;;;;;;;26.57;17.77;;;-4.10;99.90;;;;;;4995687;28;20183;-63
2021/12/11 07:27:53;;;;;;;23.53;17.23;;;-4.10;99.90;;;;;;5013225;28;20175;-62
2021/12/11 07:30:20;;;;;;;20.87;16.43;;;-4.10;99.90;;;;;;5013304;28;20250;-62
2021/12/11 07:32:46;;;;;;;19.90;16.77;;;-4.10;99.90;;;;;;5013389;28;20235;-62
2021/12/11 07:35:12;;;;;;;23.47;17.33;;;-4.10;99.90;;;;;;5013472;28;20238;-62
2021/12/11 07:37:38;;;;;;;23.33;17.27;;;-4.10;99.90;;;;;;5013244;28;20176;-62
2021/12/11 07:40:08;;;;;;;21.03;15.77;;;-4.10;99.90;;;;;;5013472;28;20175;-62
2021/12/11 07:42:36;;;;;;;30.83;17.73;;;-4.10;99.90;;;;;;5013308;28;20269;-63
2021/12/11 07:45:03;;;;;;;26.43;18.23;;;-4.00;99.90;;;;;;5013327;28;20194;-62
2021/12/11 07:47:29;;;;;;;24.50;17.07;;;-4.00;99.90;;;;;;4995822;28;20176;-62
2021/12/11 07:49:54;;;;;;;28.00;17.90;;;-3.90;99.90;;;;;;5013257;28;20222;-62
2021/12/11 07:52:20;;;;;;;22.03;17.73;;;-3.90;99.90;;;;;;5013329;28;20176;-62
2021/12/11 07:54:46;;;;;;;25.47;18.80;;;-3.80;99.90;;;;;;4995550;28;20184;-63
2021/12/11 07:57:12;;;;;;;20.10;17.33;;;-3.80;99.90;;;;;;5013005;28;20260;-62
2021/12/11 07:59:38;;;;;;;22.70;17.63;;;-3.80;99.90;;;;;;5013045;28;20263;-63
2021/12/11 08:02:04;;;;;;;20.37;16.83;;;-3.70;99.90;;;;;;5012956;28;20192;-62
2021/12/11 08:04:30;;;;;;;25.60;18.17;;;-3.60;99.90;;;;;;4995262;28;20234;-63
2021/12/11 08:06:56;;;;;;;29.73;19.30;;;-3.60;99.90;;;;;;5012991;28;20180;-62
2021/12/11 08:09:25;;;;;;;30.43;20.20;;;-3.50;99.90;;;;;;5012969;28;20160;-62
2021/12/11 08:11:52;;;;;;;31.93;20.47;;;-3.40;99.90;;;;;;5012877;28;20543;-62
2021/12/11 08:14:27;;;;;;;21.47;18.87;;;-3.30;99.90;;;;;;5012903;28;20249;-62
2021/12/11 08:17:05;;;;;;;28.27;19.43;;;-3.30;99.90;;;;;;5012906;28;20168;-62
2021/12/11 08:19:37;;;;;;;26.80;20.10;;;-3.30;99.90;;;;;;5012961;28;20175;-62
2021/12/11 08:22:06;;;;;;;28.20;20.27;;;-3.20;99.90;;;;;;4994827;28;20204;-62
2021/12/11 08:24:37;;;;;;;29.17;20.50;;;-3.10;99.90;;;;;;4994985;28;20224;-62
2021/12/11 08:27:17;;;;;;;26.30;19.63;;;-3.10;99.90;;;;;;5012664;28;20189;-63
2021/12/11 08:29:51;;;;;;;28.53;20.03;;;-3.00;99.90;;;;;;4996872;28;20160;-63
2021/12/11 08:32:20;;;;;;;26.77;19.93;;;-2.90;99.90;;;;;;4982457;28;20182;-62
2021/12/11 08:34:47;;;;;;;21.13;17.63;;;-2.80;99.90;;;;;;4982867;28;20245;-63
2021/12/11 08:37:17;;;;;;;27.83;17.93;;;-2.70;99.90;;;;;;5016252;28;20230;-62
2021/12/11 08:39:43;;;;;;;23.97;20.10;;;-2.60;99.90;;;;;;4998603;28;20176;-63
2021/12/11 08:42:18;;;;;;;30.27;19.03;;;-2.50;99.90;;;;;;4982477;28;20212;-63
2021/12/11 08:45:03;;;;;;;21.63;17.77;;;-2.50;99.90;;;;;;5016395;28;20153;-63
2021/12/11 08:47:29;;;;;;;22.33;17.50;;;-2.40;99.90;;;;;;4998440;28;20271;-63
2021/12/11 08:50:04;;;;;;;21.23;17.80;;;-2.30;99.90;;;;;;4998423;28;20184;-63
2021/12/11 08:52:35;;;;;;;24.47;17.77;;;-2.20;99.90;;;;;;4998175;28;20621;-63
2021/12/11 08:55:12;;;;;;;26.70;17.37;;;-2.10;99.90;;;;;;5015972;28;20156;-63
2021/12/11 08:57:41;;;;;;;21.57;17.40;;;-2.00;99.90;;;;;;4998316;28;20168;-63
2021/12/11 09:00:26;;;;;;;22.83;17.87;;;-2.00;99.90;;;;;;4998149;28;20661;-64
2021/12/11 09:03:18;;;;;;;23.93;17.83;;;-1.80;99.90;;;;;;4997841;28;20269;-64
2021/12/11 09:05:51;;;;;;;28.70;18.23;;;-1.70;99.90;;;;;;4998612;28;20608;-63
2021/12/11 09:08:30;;;;;;;25.50;18.37;;;-1.60;99.90;;;;;;4998419;28;20176;-63
2021/12/11 09:11:17;;;;;;;25.60;18.53;;;-1.50;99.90;;;;;;5016035;28;20285;-63
2021/12/11 09:14:04;;;;;;;29.83;18.67;;;-1.40;99.90;;;;;;4998133;28;20662;-63
2021/12/11 09:16:42;;;;;;;27.40;18.33;;;-1.30;99.90;;;;;;4997774;28;20187;-63
2021/12/11 09:19:27;;;;;;;39.50;22.90;;;-1.10;99.90;;;;;;4997970;28;20224;-63
2021/12/11 09:22:05;;;;;;;38.53;21.83;;;-1.10;99.90;;;;;;5015324;28;20182;-63
2021/12/11 09:25:09;;;;;;;35.43;21.23;;;-1.00;99.90;;;;;;4982165;28;20203;-63
2021/12/11 09:27:41;;;;;;;32.43;20.03;;;-0.90;99.90;;;;;;4997879;28;20258;-63
2021/12/11 09:30:32;;;;;;;29.80;19.97;;;-0.80;99.90;;;;;;5015858;28;20184;-63
2021/12/11 09:33:08;;;;;;;31.10;19.60;;;-0.70;99.90;;;;;;4997684;28;20223;-63
2021/12/11 09:35:43;;;;;;;45.57;26.03;;;-0.70;99.90;;;;;;4997629;28;20258;-63
2021/12/11 09:38:16;;;;;;;45.57;23.73;;;-0.60;99.90;;;;;;4997654;28;20175;-63
2021/12/11 09:40:46;;;;;;;48.50;25.57;;;-0.50;99.90;;;;;;4980576;28;20180;-63
2021/12/11 09:43:30;;;;;;;55.33;27.10;;;-0.40;99.90;;;;;;5015489;28;20286;-64
2021/12/11 09:45:59;;;;;;;53.20;26.90;;;-0.30;99.90;;;;;;4998994;28;20596;-62
2021/12/11 09:48:26;;;;;;;56.80;26.60;;;-0.20;99.90;;;;;;5017689;28;20180;-64
2021/12/11 09:51:01;;;;;;;52.93;28.23;;;-0.10;99.90;;;;;;5015114;28;20172;-64
2021/12/11 09:53:32;;;;;;;49.33;25.70;;;0.00;99.90;;;;;;5014975;28;20203;-64
2021/12/11 09:55:59;;;;;;;56.67;27.47;;;0.00;99.90;;;;;;5015200;28;20164;-64
2021/12/11 09:58:29;;;;;;;50.73;25.33;;;0.10;99.90;;;;;;5014966;28;20176;-64
2021/12/11 10:01:03;;;;;;;49.93;26.43;;;0.10;99.90;;;;;;4997346;28;20175;-64
2021/12/11 10:03:32;;;;;;;54.23;25.50;;;0.10;99.90;;;;;;4996877;28;20220;-64
2021/12/11 10:06:15;;;;;;;53.17;26.60;;;0.10;99.90;;;;;;5014825;28;20179;-64
2021/12/11 10:08:46;;;;;;;57.53;27.80;;;0.20;99.90;;;;;;5015147;28;20152;-64
2021/12/11 10:11:16;;;;;;;65.10;28.07;;;0.20;99.90;;;;;;5014867;28;20239;-64
2021/12/11 10:13:44;;;;;;;64.03;29.23;;;0.30;99.90;;;;;;4996755;28;20301;-64
2021/12/11 10:16:12;;;;;;;70.03;29.50;;;0.50;99.90;;;;;;5014349;28;20179;-64
2021/12/11 10:18:38;;;;;;;59.93;28.23;;;0.60;99.90;;;;;;4996687;28;20176;-64
2021/12/11 10:21:13;;;;;;;66.70;28.83;;;0.70;99.90;;;;;;5014374;28;20643;-64
2021/12/11 10:23:42;;;;;;;64.67;27.80;;;0.70;99.90;;;;;;5014430;28;20214;-64
2021/12/11 10:26:11;;;;;;;60.13;28.93;;;0.80;99.90;;;;;;5014483;28;20168;-64
2021/12/11 10:28:44;;;;;;;61.43;26.27;;;0.90;99.90;;;;;;5014312;28;20172;-64
2021/12/11 10:31:15;;;;;;;72.00;29.73;;;0.90;99.90;;;;;;5014683;28;20517;-64
2021/12/11 10:33:41;;;;;;;61.33;28.40;;;1.00;99.90;;;;;;5014174;28;20187;-64
2021/12/11 10:36:11;;;;;;;62.10;28.50;;;1.00;99.90;;;;;;5014253;28;20187;-64
2021/12/11 10:38:37;;;;;;;53.40;26.30;;;1.00;99.90;;;;;;4996369;28;20176;-64
2021/12/11 10:41:06;;;;;;;60.27;27.43;;;1.10;99.90;;;;;;5014446;28;20179;-65
2021/12/11 10:43:34;;;;;;;59.50;27.07;;;1.30;99.90;;;;;;4996994;28;20698;-65
2021/12/11 10:46:03;;;;;;;54.13;27.27;;;1.40;99.90;;;;;;5014734;28;20517;-65
2021/12/11 10:48:34;;;;;;;60.07;28.03;;;1.40;99.90;;;;;;4996798;28;20182;-65
2021/12/11 10:51:06;;;;;;;62.37;26.27;;;1.50;99.90;;;;;;4996350;28;20167;-65
2021/12/11 10:53:32;;;;;;;53.87;24.87;;;1.60;99.90;;;;;;5013739;28;20274;-64
2021/12/11 10:56:01;;;;;;;57.10;29.00;;;1.70;99.90;;;;;;5013707;28;20186;-64
2021/12/11 10:58:31;;;;;;;50.80;25.10;;;1.70;99.90;;;;;;5013740;28;20182;-65
2021/12/11 11:01:03;;;;;;;51.87;25.07;;;1.70;99.90;;;;;;5014108;28;20164;-63
2021/12/11 11:03:33;;;;;;;50.00;24.33;;;1.70;99.90;;;;;;5013632;28;20769;-64
2021/12/11 11:05:59;;;;;;;49.37;24.53;;;1.70;99.90;;;;;;5013616;28;20627;-64
2021/12/11 11:08:25;;;;;;;59.53;25.00;;;1.70;99.90;;;;;;5013633;28;20200;-64
2021/12/11 11:10:55;;;;;;;51.10;25.60;;;1.70;99.90;;;;;;5013487;28;20200;-63
2021/12/11 11:13:23;;;;;;;48.67;24.70;;;1.70;99.90;;;;;;5013567;28;20211;-64
2021/12/11 11:15:51;;;;;;;50.73;24.47;;;1.70;99.90;;;;;;5013831;28;20179;-63
2021/12/11 11:18:19;;;;;;;42.87;24.27;;;1.60;99.90;;;;;;5013606;28;20188;-64
2021/12/11 11:20:52;;;;;;;49.87;25.20;;;1.60;99.90;;;;;;5013727;28;20748;-63
2021/12/11 11:23:18;;;;;;;49.53;24.80;;;1.60;99.90;;;;;;4995799;28;20207;-64
2021/12/11 11:25:46;;;;;;;51.37;26.57;;;1.60;99.90;;;;;;5013439;28;20180;-63
2021/12/11 11:28:16;;;;;;;51.20;27.90;;;1.60;99.90;;;;;;5013437;28;20172;-63
2021/12/11 11:30:56;;;;;;;48.30;25.30;;;1.70;99.90;;;;;;5013435;28;20195;-63
2021/12/11 11:33:25;;;;;;;52.83;27.50;;;1.70;99.90;;;;;;5013234;28;20200;-63
2021/12/11 11:35:52;;;;;;;51.37;26.57;;;1.70;99.90;;;;;;5013706;28;20258;-65
2021/12/11 11:38:24;;;;;;;49.67;25.27;;;1.80;99.90;;;;;;5013429;28;20221;-63
2021/12/11 11:40:56;;;;;;;50.80;26.63;;;1.80;99.90;;;;;;4995629;28;20175;-63
2021/12/11 11:43:23;;;;;;;49.77;25.50;;;1.80;99.90;;;;;;5013165;28;20710;-63
2021/12/11 11:45:52;;;;;;;50.73;25.57;;;1.90;99.90;;;;;;5013294;28;20199;-63
2021/12/11 11:48:23;;;;;;;50.93;24.43;;;1.90;99.90;;;;;;5013486;28;20180;-63
2021/12/11 11:50:51;;;;;;;52.53;25.97;;;1.90;99.90;;;;;;4995710;28;20164;-63
2021/12/11 11:53:19;;;;;;;48.73;25.80;;;1.90;99.90;;;;;;5013244;28;20214;-69
2021/12/11 11:55:49;;;;;;;54.23;25.70;;;1.90;99.90;;;;;;4995623;28;20671;-64
2021/12/11 11:58:16;;;;;;;49.17;25.03;;;2.00;99.90;;;;;;5013633;28;20219;-67
2021/12/11 12:00:50;;;;;;;49.40;25.77;;;2.00;99.90;;;;;;5013376;28;20180;-66
2021/12/11 12:03:19;;;;;;;55.43;25.63;;;2.00;99.90;;;;;;5013163;28;20224;-66
2021/12/11 12:05:49;;;;;;;51.43;25.13;;;2.10;99.90;;;;;;5016922;28;20607;-65
2021/12/11 12:08:15;;;;;;;49.03;25.93;;;2.10;99.90;;;;;;5017412;28;20520;-65
2021/12/11 12:10:43;;;;;;;55.17;27.17;;;2.10;99.90;;;;;;5016938;28;20176;-65
2021/12/11 12:13:09;;;;;;;57.23;28.70;;;2.00;99.90;;;;;;5017424;28;20207;-65
2021/12/11 12:15:41;;;;;;;49.00;27.43;;;2.00;99.90;;;;;;5016635;28;20584;-65
2021/12/11 12:18:07;;;;;;;46.37;26.60;;;1.90;99.90;;;;;;5017148;28;20196;-64
2021/12/11 12:20:35;;;;;;;52.57;26.33;;;1.90;99.90;;;;;;4998863;28;20186;-65
2021/12/11 12:23:01;;;;;;;53.47;26.00;;;1.80;99.90;;;;;;5016397;28;20237;-65
2021/12/11 12:25:28;;;;;;;51.17;26.23;;;1.80;99.90;;;;;;5017033;28;20172;-65
2021/12/11 12:27:54;;;;;;;59.80;26.60;;;1.70;99.90;;;;;;5016674;28;20262;-65
2021/12/11 12:30:38;;;;;;;48.57;26.80;;;1.70;99.90;;;;;;5016702;28;20259;-65
2021/12/11 12:33:05;;;;;;;50.67;25.87;;;1.60;99.90;;;;;;4999278;28;20254;-66
2021/12/11 12:35:31;;;;;;;51.17;28.07;;;1.60;99.90;;;;;;5016680;28;20176;-66
2021/12/11 12:37:59;;;;;;;54.00;26.47;;;1.60;99.90;;;;;;4998713;28;20211;-66
2021/12/11 12:40:34;;;;;;;50.30;26.27;;;1.60;99.90;;;;;;5016845;28;20524;-65
2021/12/11 12:43:11;;;;;;;53.20;27.03;;;1.60;99.90;;;;;;5016357;28;20257;-65
2021/12/11 12:45:45;;;;;;;52.07;26.33;;;1.60;99.90;;;;;;4998698;28;20171;-65
2021/12/11 12:48:16;;;;;;;49.60;26.40;;;1.60;99.90;;;;;;4998628;28;20239;-65
2021/12/11 12:50:58;;;;;;;55.90;27.10;;;1.60;99.90;;;;;;4998599;28;20168;-65
2021/12/11 12:53:33;;;;;;;52.40;27.13;;;1.60;99.90;;;;;;5016166;28;20206;-65
2021/12/11 12:56:04;;;;;;;53.60;26.63;;;1.70;99.90;;;;;;4998402;28;20199;-65
2021/12/11 12:58:35;;;;;;;49.83;27.27;;;1.70;99.90;;;;;;5016139;28;20737;-65
2021/12/11 13:01:10;;;;;;;61.20;29.40;;;1.70;99.90;;;;;;5016271;28;20587;-65